createdAt,value
2023-01-25T00:00:11.447Z,60675.34
2023-01-25T00:02:39.864Z,60667.59
2023-01-25T00:05:09.320Z,60674.94
2023-01-25T00:07:39.137Z,60676.53
2023-01-25T00:10:08.666Z,60666.41
2023-01-25T00:12:37.091Z,60671.75
2023-01-25T00:15:06.977Z,60672.28
2023-01-25T00:17:35.568Z,60664.41
2023-01-25T00:20:04.028Z,60670.69
2023-01-25T00:22:32.538Z,60688.78
2023-01-25T00:25:02.242Z,60673.88
2023-01-25T00:27:30.624Z,60674.28
2023-01-25T00:29:59.028Z,60672.81
2023-01-25T00:32:43.635Z,60671.63
2023-01-25T00:35:14.164Z,60670.03
2023-01-25T00:37:45.683Z,60663.22
2023-01-25T00:40:15.430Z,60665.34
2023-01-25T00:42:43.866Z,60664.41
2023-01-25T00:45:14.038Z,60673.88
2023-01-25T00:47:42.463Z,60668.03
2023-01-25T00:50:12.634Z,60674.94
2023-01-25T00:52:42.031Z,60676.41
2023-01-25T00:55:11.340Z,60676.53
2023-01-25T00:57:41.113Z,60668.56
2023-01-25T01:00:11.571Z,60668.03
2023-01-25T01:02:40.045Z,60669.09
2023-01-25T01:05:09.906Z,60672.16
2023-01-25T01:07:38.837Z,60676.41
2023-01-25T01:10:08.935Z,60677.59
2023-01-25T01:12:37.369Z,60681.31
2023-01-25T01:15:09.308Z,60665.34
2023-01-25T01:17:37.835Z,60665.75
2023-01-25T01:20:07.179Z,60663.75
2023-01-25T01:22:35.721Z,60656.44
2023-01-25T01:25:04.142Z,60668.44
2023-01-25T01:27:32.485Z,60670.56
2023-01-25T01:30:00.968Z,60670.69
2023-01-25T01:32:30.879Z,60667.50
2023-01-25T01:34:59.416Z,60671.22
2023-01-25T01:37:27.787Z,60666.41
2023-01-25T01:39:56.182Z,60667.59
2023-01-25T01:42:24.629Z,60661.22
2023-01-25T01:44:56.028Z,60662.16
2023-01-25T01:47:32.642Z,60665.88
2023-01-25T01:50:18.871Z,60657.25
2023-01-25T01:52:48.089Z,60664.69
2023-01-25T01:55:20.753Z,60663.75
2023-01-25T01:57:53.704Z,60670.28
2023-01-25T02:00:28.313Z,60663.22
2023-01-25T02:02:59.676Z,60675.75
2023-01-25T02:05:38.426Z,60678.94
2023-01-25T02:08:08.038Z,60683.19
2023-01-25T02:10:37.845Z,60662.69
2023-01-25T02:13:06.220Z,60666.94
2023-01-25T02:15:42.367Z,60667.50
2023-01-25T02:18:13.154Z,60654.31
2023-01-25T02:20:44.978Z,60660.03
2023-01-25T02:23:25.299Z,60656.84
2023-01-25T02:25:56.330Z,60664.16
2023-01-25T02:28:30.614Z,60667.91
2023-01-25T02:30:59.286Z,60650.03
2023-01-25T02:33:29.380Z,60664.53
2023-01-25T02:36:14.937Z,60670.56
2023-01-25T02:38:51.824Z,60663.22
2023-01-25T02:41:32.852Z,60665.34
2023-01-25T02:44:02.105Z,60667.50
2023-01-25T02:46:34.329Z,60659.78
2023-01-25T02:49:05.903Z,60645.25
2023-01-25T02:51:37.308Z,60640.97
2023-01-25T02:54:08.816Z,60649.50
2023-01-25T02:56:40.726Z,60659.63
2023-01-25T02:59:13.284Z,60665.75
2023-01-25T03:01:45.200Z,60658.97
2023-01-25T03:04:14.568Z,60651.50
2023-01-25T03:06:43.578Z,60654.44
2023-01-25T03:09:13.151Z,60652.31
2023-01-25T03:11:47.359Z,60648.31
2023-01-25T03:14:17.835Z,60649.38
2023-01-25T03:16:46.295Z,60657.75
2023-01-25T03:19:14.960Z,60643.53
2023-01-25T03:21:44.669Z,60653.50
2023-01-25T03:24:13.304Z,60653.00
2023-01-25T03:27:05.452Z,60644.19
2023-01-25T03:29:52.867Z,60647.91
2023-01-25T03:32:24.583Z,60640.19
2023-01-25T03:34:53.882Z,60650.44
2023-01-25T03:37:22.445Z,60650.44
2023-01-25T03:39:51.467Z,60645.25
2023-01-25T03:42:24.117Z,60650.84
2023-01-25T03:44:57.600Z,60633.16
2023-01-25T03:47:26.145Z,60633.53
2023-01-25T03:49:54.791Z,60634.06
2023-01-25T03:52:25.600Z,60643.94
2023-01-25T03:54:54.246Z,60635.03
2023-01-25T03:57:24.189Z,60648.84
2023-01-25T03:59:57.803Z,60638.47
2023-01-25T04:02:27.387Z,60636.06
2023-01-25T04:04:57.137Z,60644.88
2023-01-25T04:07:25.692Z,60634.88
2023-01-25T04:09:54.050Z,60624.91
2023-01-25T04:12:23.829Z,60617.31
2023-01-25T04:14:52.186Z,60625.94
2023-01-25T04:17:24.348Z,60627.03
2023-01-25T04:20:00.844Z,60622.09
2023-01-25T04:22:36.434Z,60618.50
2023-01-25T04:25:08.023Z,60621.31
2023-01-25T04:27:39.985Z,60627.81
2023-01-25T04:30:13.578Z,60631.28
2023-01-25T04:32:43.293Z,60623.31
2023-01-25T04:35:21.851Z,60620.66
2023-01-25T04:37:56.112Z,60616.38
2023-01-25T04:40:27.929Z,60634.88
2023-01-25T04:42:59.019Z,60619.81
2023-01-25T04:45:28.008Z,60606.41
2023-01-25T04:47:58.727Z,60618.25
2023-01-25T04:50:27.694Z,60621.03
2023-01-25T04:52:56.528Z,60623.31
2023-01-25T04:55:25.715Z,60613.19
2023-01-25T04:57:56.155Z,60620.00
2023-01-25T05:00:25.893Z,60608.94
2023-01-25T05:02:54.402Z,60617.69
2023-01-25T05:05:24.052Z,60623.84
2023-01-25T05:07:52.744Z,60623.19
2023-01-25T05:10:21.391Z,60617.97
2023-01-25T05:13:09.851Z,60627.03
2023-01-25T05:15:40.629Z,60628.09
2023-01-25T05:18:09.452Z,60606.28
2023-01-25T05:20:37.933Z,60606.16
2023-01-25T05:23:07.169Z,60610.00
2023-01-25T05:25:53.238Z,60615.31
2023-01-25T05:28:28.572Z,60620.66
2023-01-25T05:31:18.694Z,60613.19
2023-01-25T05:33:47.301Z,60613.19
2023-01-25T05:36:15.722Z,60619.03
2023-01-25T05:38:44.517Z,60627.03
2023-01-25T05:41:14.588Z,60625.94
2023-01-25T05:43:43.157Z,60615.31
2023-01-25T05:46:11.637Z,60620.66
2023-01-25T05:48:41.893Z,60608.28
2023-01-25T05:51:11.545Z,60626.38
2023-01-25T05:53:39.982Z,60604.41
2023-01-25T05:56:11.323Z,60603.63
2023-01-25T05:58:40.773Z,60597.38
2023-01-25T06:01:09.869Z,60603.09
2023-01-25T06:03:50.661Z,60600.81
2023-01-25T06:06:19.614Z,60592.56
2023-01-25T06:08:49.304Z,60593.63
2023-01-25T06:11:20.495Z,60604.13
2023-01-25T06:13:50.861Z,60606.28
2023-01-25T06:16:20.638Z,60607.19
2023-01-25T06:19:10.558Z,60608.81
2023-01-25T06:22:02.096Z,60611.59
2023-01-25T06:24:30.743Z,60608.94
2023-01-25T06:26:59.121Z,60608.38
2023-01-25T06:29:27.529Z,60597.88
2023-01-25T06:31:57.206Z,60592.97
2023-01-25T06:34:27.053Z,60596.16
2023-01-25T06:36:55.736Z,60592.31
2023-01-25T06:39:24.151Z,60589.13
2023-01-25T06:41:52.496Z,60578.06
2023-01-25T06:44:20.923Z,60577.66
2023-01-25T06:46:49.365Z,60588.19
2023-01-25T06:49:17.825Z,60597.09
2023-01-25T06:51:47.638Z,60605.19
2023-01-25T06:54:16.130Z,60680.66
2023-01-25T06:56:44.714Z,60730.34
2023-01-25T06:59:13.291Z,60743.00
2023-01-25T07:01:41.712Z,60725.00
2023-01-25T07:04:12.779Z,60732.47
2023-01-25T07:06:41.624Z,60749.28
2023-01-25T07:09:14.996Z,60754.31
2023-01-25T07:11:43.424Z,60747.41
2023-01-25T07:14:11.807Z,60717.56
2023-01-25T07:16:40.202Z,60691.97
2023-01-25T07:19:13.348Z,60660.03
2023-01-25T07:21:42.242Z,60639.13
2023-01-25T07:24:17.234Z,60627.03
2023-01-25T07:26:45.877Z,60623.41
2023-01-25T07:29:16.163Z,60636.06
2023-01-25T07:31:44.697Z,60632.34
2023-01-25T07:34:14.883Z,60634.88
2023-01-25T07:36:44.714Z,60614.25
2023-01-25T07:39:14.837Z,60602.97
2023-01-25T07:41:43.322Z,60601.47
2023-01-25T07:44:15.225Z,60595.09
2023-01-25T07:46:50.370Z,60588.19
2023-01-25T07:49:19.026Z,60585.53
2023-01-25T07:51:47.840Z,60584.06
2023-01-25T07:54:17.675Z,60583.41
2023-01-25T07:56:46.132Z,60591.78
2023-01-25T07:59:14.578Z,60586.59
2023-01-25T08:01:42.996Z,60592.31
2023-01-25T08:04:11.990Z,60584.88
2023-01-25T08:06:40.671Z,60583.78
2023-01-25T08:09:14.089Z,60586.19
2023-01-25T08:11:44.613Z,60592.84
2023-01-25T08:14:13.247Z,60590.84
2023-01-25T08:16:41.948Z,60592.31
2023-01-25T08:19:11.601Z,60586.97
2023-01-25T08:21:40.144Z,60568.25
2023-01-25T08:24:09.976Z,60566.22
2023-01-25T08:26:38.981Z,60567.84
2023-01-25T08:29:08.798Z,60575.69
2023-01-25T08:31:38.286Z,60579.94
2023-01-25T08:34:07.871Z,60579.16
2023-01-25T08:36:36.291Z,60588.47
2023-01-25T08:39:09.085Z,60588.19
2023-01-25T08:41:37.991Z,60573.81
2023-01-25T08:44:08.085Z,60580.19
2023-01-25T08:46:36.900Z,60575.28
2023-01-25T08:49:07.104Z,60591.78
2023-01-25T08:51:35.584Z,60590.97
2023-01-25T08:54:05.545Z,60593.50
2023-01-25T08:56:34.483Z,60587.91
2023-01-25T08:59:02.957Z,60581.69
2023-01-25T09:01:32.885Z,60585.09
2023-01-25T09:04:01.660Z,60598.28
2023-01-25T09:06:30.365Z,60587.41
2023-01-25T09:09:00.176Z,60592.44
2023-01-25T09:11:28.796Z,60607.72
2023-01-25T09:13:57.446Z,60613.19
2023-01-25T09:16:30.686Z,60604.81
2023-01-25T09:19:03.726Z,60620.09
2023-01-25T09:21:35.917Z,60620.09
2023-01-25T09:24:06.660Z,60598.41
2023-01-25T09:26:38.761Z,60592.97
2023-01-25T09:29:08.894Z,60588.72
2023-01-25T09:31:41.094Z,60604.66
2023-01-25T09:34:24.993Z,60610.41
2023-01-25T09:36:53.621Z,60589.78
2023-01-25T09:39:22.211Z,60597.22
2023-01-25T09:42:21.540Z,60588.31
2023-01-25T09:45:16.591Z,60591.38
2023-01-25T09:47:52.493Z,60599.63
2023-01-25T09:50:39.422Z,60594.03
2023-01-25T09:53:32.131Z,60604.13
2023-01-25T09:56:04.921Z,60623.72
2023-01-25T09:58:37.044Z,60615.19
2023-01-25T10:01:36.700Z,60619.31
2023-01-25T10:04:15.994Z,60602.44
2023-01-25T10:06:59.741Z,60585.66
2023-01-25T10:09:43.867Z,60582.47
2023-01-25T10:12:20.554Z,60593.50
2023-01-25T10:14:49.946Z,60606.00
2023-01-25T10:17:28.885Z,60619.16
2023-01-25T10:20:24.706Z,60617.47
2023-01-25T10:23:25.086Z,60604.41
2023-01-25T10:25:59.410Z,60591.50
2023-01-25T10:28:46.275Z,60599.75
2023-01-25T10:31:20.299Z,60601.09
2023-01-25T10:33:50.390Z,60605.19
2023-01-25T10:36:24.878Z,60598.28
2023-01-25T10:38:59.318Z,60587.38
2023-01-25T10:41:34.278Z,60607.84
2023-01-25T10:44:20.235Z,60600.81
2023-01-25T10:46:54.964Z,60602.97
2023-01-25T10:49:28.692Z,60606.69
2023-01-25T10:51:57.544Z,60598.81
2023-01-25T10:54:30.011Z,60600.41
2023-01-25T10:56:59.289Z,60599.75
2023-01-25T10:59:31.147Z,60598.41
2023-01-25T11:02:38.123Z,60604.00
2023-01-25T11:05:27.800Z,60612.13
2023-01-25T11:07:56.837Z,60601.47
2023-01-25T11:10:35.686Z,60602.53
2023-01-25T11:13:29.176Z,60612.94
2023-01-25T11:16:34.350Z,60609.59
2023-01-25T11:19:04.000Z,60583.41
2023-01-25T11:21:34.943Z,60584.22
2023-01-25T11:24:18.144Z,60584.44
2023-01-25T11:26:48.441Z,60595.50
2023-01-25T11:29:19.236Z,60590.31
2023-01-25T11:31:50.559Z,60590.44
2023-01-25T11:34:22.205Z,60611.59
2023-01-25T11:37:12.791Z,60623.84
2023-01-25T11:39:55.429Z,60612.78
2023-01-25T11:42:35.634Z,60617.84
2023-01-25T11:45:28.078Z,60612.13
2023-01-25T11:48:25.997Z,60595.09
2023-01-25T11:51:03.983Z,60584.06
2023-01-25T11:53:57.314Z,60585.94
2023-01-25T11:56:40.938Z,60575.94
2023-01-25T11:59:35.170Z,60572.34
2023-01-25T12:02:46.809Z,60582.56
2023-01-25T12:05:35.282Z,60606.28
2023-01-25T12:08:23.363Z,60613.59
2023-01-25T12:10:59.797Z,60605.31
2023-01-25T12:13:41.223Z,60620.53
2023-01-25T12:16:34.352Z,60618.50
2023-01-25T12:19:20.606Z,60583.41
2023-01-25T12:22:07.509Z,60594.03
2023-01-25T12:24:48.279Z,60604.97
2023-01-25T12:27:34.020Z,60600.41
2023-01-25T12:30:14.862Z,60594.03
2023-01-25T12:32:57.295Z,60612.94
2023-01-25T12:35:35.759Z,60597.22
2023-01-25T12:38:11.507Z,60605.31
2023-01-25T12:40:52.031Z,60620.38
2023-01-25T12:43:25.880Z,60605.75
2023-01-25T12:45:56.366Z,60596.16
2023-01-25T12:48:32.226Z,60594.56
2023-01-25T12:51:01.759Z,60568.09
2023-01-25T12:53:37.575Z,60577.94
2023-01-25T12:56:08.197Z,60589.78
2023-01-25T12:58:45.263Z,60588.47
2023-01-25T13:01:24.108Z,60597.63
2023-01-25T13:04:10.604Z,60601.47
2023-01-25T13:06:50.465Z,60593.50
2023-01-25T13:09:28.808Z,60585.09
2023-01-25T13:11:57.264Z,60593.38
2023-01-25T13:14:32.184Z,60601.09
2023-01-25T13:17:24.401Z,60577.66
2023-01-25T13:19:54.504Z,60582.47
2023-01-25T13:22:58.751Z,60596.03
2023-01-25T13:25:28.686Z,60592.31
2023-01-25T13:28:45.567Z,60570.50
2023-01-25T13:31:53.173Z,60579.81
2023-01-25T13:34:58.942Z,60592.44
2023-01-25T13:37:30.181Z,60602.53
2023-01-25T13:40:05.949Z,60611.06
2023-01-25T13:42:36.846Z,60609.34
2023-01-25T13:45:18.655Z,60599.47
2023-01-25T13:48:04.716Z,60590.84
2023-01-25T13:50:38.144Z,60591.50
2023-01-25T13:53:20.090Z,60595.09
2023-01-25T13:55:51.471Z,60594.69
2023-01-25T13:58:23.335Z,60595.63
2023-01-25T14:00:55.978Z,60596.56
2023-01-25T14:03:29.533Z,60603.09
2023-01-25T14:06:02.692Z,60589.78
2023-01-25T14:08:32.320Z,60580.06
2023-01-25T14:11:01.184Z,60557.84
2023-01-25T14:13:29.546Z,60558.94
2023-01-25T14:16:00.730Z,60571.56
2023-01-25T14:18:33.390Z,60575.69
2023-01-25T14:21:19.156Z,60563.69
2023-01-25T14:23:48.820Z,60562.13
2023-01-25T14:26:24.679Z,60554.25
2023-01-25T14:29:01.826Z,60566.91
2023-01-25T14:31:38.846Z,60568.50
2023-01-25T14:34:08.602Z,60562.91
2023-01-25T14:36:38.367Z,60557.31
2023-01-25T14:39:22.432Z,60569.41
2023-01-25T14:42:00.856Z,60562.38
2023-01-25T14:44:31.039Z,60577.00
2023-01-25T14:47:31.183Z,60567.44
2023-01-25T14:50:34.188Z,60553.06
2023-01-25T14:53:15.241Z,60557.19
2023-01-25T14:55:46.145Z,60561.59
2023-01-25T14:58:19.078Z,60561.03
2023-01-25T15:00:54.071Z,60564.00
2023-01-25T15:03:23.105Z,60561.03
2023-01-25T15:05:51.848Z,60567.44
2023-01-25T15:08:31.895Z,60568.91
2023-01-25T15:11:21.425Z,60565.31
2023-01-25T15:13:50.093Z,60557.84
2023-01-25T15:16:18.742Z,60570.63
2023-01-25T15:18:51.026Z,60578.88
2023-01-25T15:21:21.264Z,60575.69
2023-01-25T15:23:51.615Z,60563.69
2023-01-25T15:26:22.721Z,60566.50
2023-01-25T15:28:53.786Z,60563.56
2023-01-25T15:31:26.104Z,60561.47
2023-01-25T15:33:55.401Z,60549.75
2023-01-25T15:36:23.876Z,60540.31
2023-01-25T15:38:53.648Z,60544.44
2023-01-25T15:41:22.583Z,60539.78
2023-01-25T15:43:52.168Z,60537.63
2023-01-25T15:46:23.991Z,60534.44
2023-01-25T15:48:53.469Z,60548.69
2023-01-25T15:51:22.668Z,60552.00
2023-01-25T15:53:51.144Z,60554.66
2023-01-25T15:56:22.745Z,60565.69
2023-01-25T15:58:54.177Z,60577.41
2023-01-25T16:01:23.773Z,60580.06
2023-01-25T16:03:52.155Z,60574.47
2023-01-25T16:06:33.457Z,60579.16
2023-01-25T16:09:04.361Z,60564.78
2023-01-25T16:11:34.139Z,60560.38
2023-01-25T16:14:02.570Z,60557.44
2023-01-25T16:16:30.982Z,60568.50
2023-01-25T16:18:59.452Z,60576.88
2023-01-25T16:21:28.135Z,60584.44
2023-01-25T16:23:56.563Z,60579.16
2023-01-25T16:26:27.659Z,60562.66
2023-01-25T16:28:57.557Z,60561.03
2023-01-25T16:31:32.914Z,60560.38
2023-01-25T16:34:02.589Z,60572.75
2023-01-25T16:36:31.815Z,60596.69
2023-01-25T16:39:10.396Z,60598.41
2023-01-25T16:41:42.777Z,60591.91
2023-01-25T16:44:13.122Z,60580.84
2023-01-25T16:46:41.549Z,60579.16
2023-01-25T16:49:16.586Z,60568.91
2023-01-25T16:51:46.092Z,60567.84
2023-01-25T16:54:14.504Z,60561.84
2023-01-25T16:56:42.951Z,60546.81
2023-01-25T16:59:13.473Z,60542.97
2023-01-25T17:01:42.058Z,60547.22
2023-01-25T17:04:11.648Z,60545.63
2023-01-25T17:06:42.951Z,60555.75
2023-01-25T17:09:23.071Z,60553.59
2023-01-25T17:11:52.468Z,60558.94
2023-01-25T17:14:22.921Z,60551.47
2023-01-25T17:16:55.780Z,60556.78
2023-01-25T17:19:25.144Z,60559.84
2023-01-25T17:21:53.576Z,60563.19
2023-01-25T17:24:22.793Z,60565.84
2023-01-25T17:26:51.862Z,60571.03
2023-01-25T17:29:21.897Z,60562.91
2023-01-25T17:31:50.520Z,60547.63
2023-01-25T17:34:21.927Z,60540.84
2023-01-25T17:36:51.265Z,60551.47
2023-01-25T17:39:21.066Z,60548.28
2023-01-25T17:41:51.077Z,60537.63
2023-01-25T17:44:26.758Z,60555.31
2023-01-25T17:46:55.301Z,60560.38
2023-01-25T17:49:25.417Z,60571.28
2023-01-25T17:51:54.307Z,60579.16
2023-01-25T17:54:23.020Z,60573.81
2023-01-25T17:57:02.641Z,60584.44
2023-01-25T17:59:35.361Z,60571.03
2023-01-25T18:02:06.493Z,60564.66
2023-01-25T18:04:35.978Z,60564.78
2023-01-25T18:07:04.912Z,60554.13
2023-01-25T18:09:35.771Z,60567.19
2023-01-25T18:12:04.476Z,60562.66
2023-01-25T18:14:35.052Z,60569.03
2023-01-25T18:17:04.195Z,60573.69
2023-01-25T18:19:33.041Z,60559.59
2023-01-25T18:22:01.598Z,60571.03
2023-01-25T18:24:34.542Z,60566.91
2023-01-25T18:27:08.287Z,60574.63
2023-01-25T18:29:54.333Z,60563.69
2023-01-25T18:32:23.438Z,60564.22
2023-01-25T18:34:52.347Z,60562.00
2023-01-25T18:37:23.715Z,60548.28
2023-01-25T18:39:54.515Z,60543.91
2023-01-25T18:42:25.966Z,60550.94
2023-01-25T18:44:56.183Z,60546.16
2023-01-25T18:47:25.197Z,60550.41
2023-01-25T18:49:54.707Z,60542.69
2023-01-25T18:52:25.143Z,60528.06
2023-01-25T18:54:53.809Z,60532.88
2023-01-25T18:57:22.380Z,60543.91
2023-01-25T18:59:51.482Z,60537.53
2023-01-25T19:02:22.958Z,60523.81
2023-01-25T19:04:51.779Z,60519.56
2023-01-25T19:07:22.715Z,60523.97
2023-01-25T19:09:51.263Z,60540.59
2023-01-25T19:12:19.763Z,60546.16
2023-01-25T19:14:48.341Z,60551.47
2023-01-25T19:17:16.972Z,60555.19
2023-01-25T19:19:51.047Z,60566.75
2023-01-25T19:22:25.641Z,60555.75
2023-01-25T19:24:54.098Z,60563.84
2023-01-25T19:27:29.710Z,60566.22
2023-01-25T19:30:05.081Z,60561.59
2023-01-25T19:32:33.820Z,60569.97
2023-01-25T19:35:09.428Z,60567.97
2023-01-25T19:37:46.041Z,60553.88
2023-01-25T19:40:19.711Z,60547.22
2023-01-25T19:42:58.095Z,60550.94
2023-01-25T19:45:26.845Z,60550.81
2023-01-25T19:48:13.487Z,60535.00
2023-01-25T19:50:51.037Z,60533.41
2023-01-25T19:53:19.492Z,60528.06
2023-01-25T19:55:47.896Z,60515.97
2023-01-25T19:58:21.067Z,60539.78
2023-01-25T20:00:50.043Z,60529.81
2023-01-25T20:03:20.453Z,60536.44
2023-01-25T20:05:59.207Z,60534.06
2023-01-25T20:08:30.764Z,60535.25
2023-01-25T20:11:00.804Z,60529.16
2023-01-25T20:13:35.280Z,60531.78
2023-01-25T20:16:04.040Z,60520.78
2023-01-25T20:18:35.153Z,60531.69
2023-01-25T20:21:11.028Z,60528.06
2023-01-25T20:23:53.656Z,60540.16
2023-01-25T20:26:25.456Z,60529.81
2023-01-25T20:28:56.116Z,60518.91
2023-01-25T20:31:31.949Z,60512.94
2023-01-25T20:34:03.593Z,60503.22
2023-01-25T20:36:37.948Z,60507.22
2023-01-25T20:39:12.860Z,60510.66
2023-01-25T20:41:41.330Z,60515.84
2023-01-25T20:44:11.304Z,60523.53
2023-01-25T20:46:41.689Z,60528.59
2023-01-25T20:49:15.232Z,60530.72
2023-01-25T20:51:47.184Z,60526.50
2023-01-25T20:54:18.327Z,60541.13
2023-01-25T20:56:54.473Z,60549.63
2023-01-25T20:59:25.413Z,60544.44
2023-01-25T21:01:57.584Z,60531.78
2023-01-25T21:04:26.325Z,60523.81
2023-01-25T21:07:05.188Z,60525.94
2023-01-25T21:09:35.827Z,60529.53
2023-01-25T21:12:17.798Z,60540.84
2023-01-25T21:14:52.295Z,60538.31
2023-01-25T21:17:23.524Z,60527.53
2023-01-25T21:20:30.259Z,60496.16
2023-01-25T21:23:16.624Z,60504.16
2023-01-25T21:25:50.048Z,60503.50
2023-01-25T21:28:21.481Z,60507.63
2023-01-25T21:30:57.504Z,60484.91
2023-01-25T21:33:26.407Z,60498.31
2023-01-25T21:36:08.518Z,60499.78
2023-01-25T21:38:42.835Z,60501.63
2023-01-25T21:41:13.792Z,60507.88
2023-01-25T21:43:59.469Z,60511.59
2023-01-25T21:46:29.771Z,60500.97
2023-01-25T21:49:17.507Z,60507.22
2023-01-25T21:51:49.548Z,60505.75
2023-01-25T21:54:22.291Z,60496.97
2023-01-25T21:56:58.425Z,60514.78
2023-01-25T21:59:27.003Z,60519.56
2023-01-25T22:01:56.683Z,60514.25
2023-01-25T22:04:29.220Z,60520.38
2023-01-25T22:07:00.052Z,60521.69
2023-01-25T22:09:30.364Z,60493.25
2023-01-25T22:12:02.012Z,60497.91
2023-01-25T22:14:30.623Z,60503.63
2023-01-25T22:16:59.001Z,60509.47
2023-01-25T22:19:27.499Z,60496.16
2023-01-25T22:21:55.860Z,60491.94
2023-01-25T22:24:24.721Z,60502.56
2023-01-25T22:27:07.774Z,60504.41
2023-01-25T22:29:36.321Z,60505.75
2023-01-25T22:32:05.180Z,60505.75
2023-01-25T22:34:45.032Z,60500.56
2023-01-25T22:37:13.540Z,60509.47
2023-01-25T22:39:42.146Z,60523.16
2023-01-25T22:42:11.943Z,60529.69
2023-01-25T22:44:40.323Z,60523.31
2023-01-25T22:47:08.707Z,60534.44
2023-01-25T22:49:37.121Z,60521.16
2023-01-25T22:52:05.888Z,60519.56
2023-01-25T22:54:34.260Z,60522.22
2023-01-25T22:57:02.622Z,60524.22
2023-01-25T22:59:38.537Z,60525.84
2023-01-25T23:02:06.916Z,60534.75
2023-01-25T23:04:35.377Z,60522.34
2023-01-25T23:07:12.601Z,60514.78
2023-01-25T23:09:41.900Z,60512.66
2023-01-25T23:12:10.338Z,60502.16
2023-01-25T23:14:51.373Z,60507.88
2023-01-25T23:17:45.583Z,60510.00
2023-01-25T23:20:14.810Z,60501.22
2023-01-25T23:22:43.248Z,60496.16
2023-01-25T23:25:13.151Z,60495.50
2023-01-25T23:27:42.023Z,60491.94
2023-01-25T23:30:12.664Z,60502.97
2023-01-25T23:32:46.052Z,60504.53
2023-01-25T23:35:14.745Z,60516.13
2023-01-25T23:37:43.333Z,60504.69
2023-01-25T23:40:13.956Z,60502.97
2023-01-25T23:42:43.042Z,60485.56
2023-01-25T23:45:12.983Z,60468.53
2023-01-25T23:47:42.967Z,60470.25
2023-01-25T23:50:13.452Z,60467.59
2023-01-25T23:52:42.101Z,60474.38
2023-01-25T23:55:11.496Z,60475.31
2023-01-25T23:57:40.110Z,60462.16
